createdAt,value
2023-11-11T00:00:13.133Z,99948.63
2023-11-11T00:02:41.120Z,99960.78
2023-11-11T00:05:09.489Z,99962.50
2023-11-11T00:07:37.522Z,99969.28
2023-11-11T00:10:06.745Z,99966.66
2023-11-11T00:12:34.608Z,99969.13
2023-11-11T00:15:02.537Z,99967.38
2023-11-11T00:17:30.433Z,99966.38
2023-11-11T00:20:00.669Z,99975.63
2023-11-11T00:22:29.756Z,99981.63
2023-11-11T00:24:57.459Z,99981.44
2023-11-11T00:27:27.959Z,99986.38
2023-11-11T00:29:57.430Z,99993.19
2023-11-11T00:32:25.492Z,99990.75
2023-11-11T00:34:54.919Z,100005.06
2023-11-11T00:37:25.245Z,99993.88
2023-11-11T00:39:53.384Z,100001.56
2023-11-11T00:42:23.123Z,100003.31
2023-11-11T00:44:51.934Z,99998.31
2023-11-11T00:47:19.681Z,99994.22
2023-11-11T00:49:50.865Z,100014.53
2023-11-11T00:52:19.085Z,100012.84
2023-11-11T00:54:46.689Z,100016.34
2023-11-11T00:57:14.480Z,100025.88
2023-11-11T00:59:42.183Z,100020.88
2023-11-11T01:02:09.955Z,100018.38
2023-11-11T01:04:38.292Z,100017.63
2023-11-11T01:07:06.092Z,100025.69
2023-11-11T01:09:33.985Z,100024.06
2023-11-11T01:12:02.024Z,100026.38
2023-11-11T01:14:29.738Z,100021.22
2023-11-11T01:16:57.543Z,100020.19
2023-11-11T01:19:25.333Z,100021.59
2023-11-11T01:21:53.823Z,100019.91
2023-11-11T01:24:21.779Z,100027.41
2023-11-11T01:26:49.582Z,100016.44
2023-11-11T01:29:17.253Z,100009.25
2023-11-11T01:31:44.968Z,100005.22
2023-11-11T01:34:12.646Z,100012.03
2023-11-11T01:36:40.415Z,100003.84
2023-11-11T01:39:08.229Z,100014.00
2023-11-11T01:41:37.282Z,100009.88
2023-11-11T01:44:05.432Z,100012.13
2023-11-11T01:46:33.819Z,100025.50
2023-11-11T01:49:02.004Z,100032.50
2023-11-11T01:51:31.105Z,100029.94
2023-11-11T01:54:00.176Z,100026.28
2023-11-11T01:56:28.309Z,100022.81
2023-11-11T01:58:56.369Z,100029.00
2023-11-11T02:01:24.731Z,100031.72
2023-11-11T02:03:52.781Z,100036.69
2023-11-11T02:06:20.577Z,100035.63
2023-11-11T02:08:48.531Z,100038.53
2023-11-11T02:11:17.139Z,100040.25
2023-11-11T02:13:45.116Z,100039.03
2023-11-11T02:16:14.091Z,100041.78
2023-11-11T02:18:42.302Z,100047.84
2023-11-11T02:21:09.965Z,100054.91
2023-11-11T02:23:38.682Z,100058.06
2023-11-11T02:26:06.455Z,100065.59
2023-11-11T02:28:34.184Z,100065.66
2023-11-11T02:31:01.996Z,100054.94
2023-11-11T02:33:29.839Z,100067.84
2023-11-11T02:35:57.977Z,100056.00
2023-11-11T02:38:25.762Z,100063.31
2023-11-11T02:40:53.558Z,100058.63
2023-11-11T02:43:21.267Z,100060.53
2023-11-11T02:45:49.042Z,100072.25
2023-11-11T02:48:16.885Z,100071.59
2023-11-11T02:50:44.738Z,100074.56
2023-11-11T02:53:13.646Z,100074.69
2023-11-11T02:55:41.489Z,100074.09
2023-11-11T02:58:09.200Z,100071.53
2023-11-11T03:00:41.266Z,100071.75
2023-11-11T03:03:09.257Z,100073.31
2023-11-11T03:05:37.438Z,100074.88
2023-11-11T03:08:05.331Z,100073.69
2023-11-11T03:10:33.043Z,100074.31
2023-11-11T03:13:01.973Z,100077.34
2023-11-11T03:15:29.827Z,100087.41
2023-11-11T03:17:57.630Z,100083.25
2023-11-11T03:20:25.499Z,100095.66
2023-11-11T03:22:53.290Z,100087.75
2023-11-11T03:25:21.214Z,100085.88
2023-11-11T03:27:48.967Z,100092.84
2023-11-11T03:30:16.829Z,100092.81
2023-11-11T03:32:44.652Z,100084.97
2023-11-11T03:35:12.703Z,100094.13
2023-11-11T03:37:40.513Z,100105.97
2023-11-11T03:40:11.826Z,100105.53
2023-11-11T03:42:39.763Z,100104.84
2023-11-11T03:45:11.304Z,100113.38
2023-11-11T03:47:40.618Z,100113.28
2023-11-11T03:50:08.954Z,100121.84
2023-11-11T03:52:36.792Z,100134.09
2023-11-11T03:55:05.725Z,100125.03
2023-11-11T03:57:33.472Z,100125.47
2023-11-11T04:00:01.336Z,100128.31
2023-11-11T04:02:29.127Z,100129.72
2023-11-11T04:04:57.283Z,100133.03
2023-11-11T04:07:25.552Z,100141.25
2023-11-11T04:09:53.337Z,100150.94
2023-11-11T04:12:21.116Z,100155.28
2023-11-11T04:14:48.969Z,100159.28
2023-11-11T04:17:16.735Z,100149.03
2023-11-11T04:19:47.643Z,100159.34
2023-11-11T04:22:15.521Z,100161.97
2023-11-11T04:24:43.376Z,100166.81
2023-11-11T04:27:11.186Z,100178.56
2023-11-11T04:29:38.938Z,100169.47
2023-11-11T04:32:08.665Z,100170.75
2023-11-11T04:34:36.545Z,100175.34
2023-11-11T04:37:04.332Z,100182.53
2023-11-11T04:39:32.378Z,100186.50
2023-11-11T04:42:01.576Z,100197.09
2023-11-11T04:44:29.501Z,100196.69
2023-11-11T04:46:57.297Z,100200.25
2023-11-11T04:49:25.856Z,100202.91
2023-11-11T04:51:53.556Z,100193.97
2023-11-11T04:54:21.369Z,100180.78
2023-11-11T04:56:49.164Z,100188.84
2023-11-11T04:59:16.858Z,100182.03
2023-11-11T05:01:44.836Z,100189.78
2023-11-11T05:04:12.774Z,100193.28
2023-11-11T05:06:40.929Z,100197.06
2023-11-11T05:09:08.777Z,100201.44
2023-11-11T05:11:37.963Z,100196.53
2023-11-11T05:14:11.379Z,100199.28
2023-11-11T05:16:42.361Z,100207.94
2023-11-11T05:19:10.466Z,100213.88
2023-11-11T05:21:38.481Z,100224.75
2023-11-11T05:24:06.877Z,100218.97
2023-11-11T05:26:34.586Z,100207.09
2023-11-11T05:29:02.440Z,100213.13
2023-11-11T05:31:32.802Z,100213.16
2023-11-11T05:34:00.715Z,100215.75
2023-11-11T05:36:28.863Z,100217.59
2023-11-11T05:38:56.705Z,100221.94
2023-11-11T05:41:24.549Z,100218.56
2023-11-11T05:43:52.540Z,100219.31
2023-11-11T05:46:21.607Z,100224.28
2023-11-11T05:48:49.490Z,100226.00
2023-11-11T05:51:17.341Z,100226.94
2023-11-11T05:53:45.075Z,100224.44
2023-11-11T05:56:14.723Z,100221.94
2023-11-11T05:58:42.476Z,100219.34
2023-11-11T06:01:10.485Z,100231.38
2023-11-11T06:03:38.898Z,100229.75
2023-11-11T06:06:07.197Z,100245.97
2023-11-11T06:08:35.073Z,100244.97
2023-11-11T06:11:03.561Z,100244.94
2023-11-11T06:13:31.333Z,100235.72
2023-11-11T06:15:59.159Z,100249.44
2023-11-11T06:18:27.235Z,100259.59
2023-11-11T06:20:54.972Z,100250.94
2023-11-11T06:25:53.533Z,100260.47
2023-11-11T06:28:21.275Z,100266.28
2023-11-11T06:30:49.021Z,100269.25
2023-11-11T06:33:16.918Z,100282.25
2023-11-11T06:35:44.752Z,100279.97
2023-11-11T06:38:13.585Z,100280.78
2023-11-11T06:40:41.516Z,100276.44
2023-11-11T06:43:09.355Z,100280.16
2023-11-11T06:45:41.209Z,100275.94
2023-11-11T06:48:09.002Z,100272.50
2023-11-11T06:50:36.728Z,100289.63
2023-11-11T06:53:04.554Z,100293.88
2023-11-11T06:55:33.206Z,100295.53
2023-11-11T06:58:01.666Z,100307.66
2023-11-11T07:00:33.290Z,100310.81
2023-11-11T07:03:01.059Z,100309.94
2023-11-11T07:05:28.859Z,100314.44
2023-11-11T07:07:56.618Z,100324.69
2023-11-11T07:10:24.313Z,100324.94
2023-11-11T07:12:52.934Z,100329.06
2023-11-11T07:15:22.359Z,100335.91
2023-11-11T07:17:50.578Z,100333.19
2023-11-11T07:20:20.540Z,100337.31
2023-11-11T07:22:51.728Z,100338.09
2023-11-11T07:25:20.952Z,100341.53
2023-11-11T07:27:48.685Z,100332.75
2023-11-11T07:30:16.720Z,100325.91
2023-11-11T07:32:56.831Z,100330.47
2023-11-11T07:35:27.949Z,100334.91
2023-11-11T07:37:56.318Z,100336.56
2023-11-11T07:40:26.946Z,100336.69
2023-11-11T07:42:57.223Z,100343.53
2023-11-11T07:45:26.244Z,100340.19
2023-11-11T07:47:54.376Z,100345.19
2023-11-11T07:50:23.308Z,100350.41
2023-11-11T07:52:51.399Z,100351.25
2023-11-11T07:55:19.191Z,100345.31
2023-11-11T08:00:20.243Z,100346.94
2023-11-11T08:02:50.581Z,100347.00
2023-11-11T08:05:18.698Z,100340.97
2023-11-11T08:07:46.835Z,100347.00
2023-11-11T08:10:14.923Z,100347.97
2023-11-11T08:12:42.613Z,100362.38
2023-11-11T08:15:12.207Z,100359.06
2023-11-11T08:17:40.137Z,100364.19
2023-11-11T08:20:12.878Z,100368.53
2023-11-11T08:22:41.374Z,100371.97
2023-11-11T08:25:09.888Z,100378.00
2023-11-11T08:27:37.702Z,100381.09
2023-11-11T08:30:07.402Z,100396.66
2023-11-11T08:32:35.218Z,100384.13
2023-11-11T08:35:03.059Z,100381.94
2023-11-11T08:37:30.752Z,100383.13
2023-11-11T08:39:58.517Z,100371.25
2023-11-11T08:42:27.253Z,100372.09
2023-11-11T08:44:59.087Z,100381.19
2023-11-11T08:47:26.977Z,100391.66
2023-11-11T08:49:57.990Z,100387.38
2023-11-11T08:52:25.704Z,100390.84
2023-11-11T08:54:54.518Z,100388.34
2023-11-11T08:57:22.302Z,100391.72
2023-11-11T08:59:50.379Z,100389.94
2023-11-11T09:02:18.512Z,100395.16
2023-11-11T09:04:46.062Z,100390.91
2023-11-11T09:07:14.267Z,100392.47
2023-11-11T09:09:41.998Z,100391.56
2023-11-11T09:12:10.000Z,100393.56
2023-11-11T09:14:37.851Z,100384.34
2023-11-11T09:17:06.776Z,100391.25
2023-11-11T09:19:34.969Z,100389.50
2023-11-11T09:22:02.574Z,100391.16
2023-11-11T09:24:30.367Z,100387.38
2023-11-11T09:29:29.008Z,100394.84
2023-11-11T09:31:56.902Z,100392.44
2023-11-11T09:34:25.253Z,100398.84
2023-11-11T09:36:54.181Z,100401.09
2023-11-11T09:39:22.110Z,100400.28
2023-11-11T09:41:49.881Z,100404.16
2023-11-11T09:46:54.031Z,100411.66
2023-11-11T09:49:22.245Z,100405.78
2023-11-11T09:51:50.776Z,100414.41
2023-11-11T09:54:18.580Z,100417.00
2023-11-11T09:59:18.025Z,100422.13
2023-11-11T10:01:45.830Z,100430.63
2023-11-11T10:04:15.281Z,100419.50
2023-11-11T10:06:43.239Z,100423.78
2023-11-11T10:09:13.008Z,100426.34
2023-11-11T10:11:40.837Z,100420.44
2023-11-11T10:14:09.686Z,100433.22
2023-11-11T10:16:38.941Z,100423.75
2023-11-11T10:19:13.439Z,100433.31
2023-11-11T10:21:41.733Z,100431.53
2023-11-11T10:24:10.310Z,100437.59
2023-11-11T10:26:42.683Z,100435.81
2023-11-11T10:29:13.798Z,100430.72
2023-11-11T10:31:44.572Z,100431.59
2023-11-11T10:34:12.546Z,100433.28
2023-11-11T10:36:42.177Z,100422.03
2023-11-11T10:39:13.644Z,100432.22
2023-11-11T10:41:44.734Z,100429.66
2023-11-11T10:44:12.566Z,100429.56
2023-11-11T10:46:42.060Z,100435.84
2023-11-11T10:49:09.892Z,100437.38
2023-11-11T10:51:39.015Z,100448.53
2023-11-11T10:54:07.183Z,100449.66
2023-11-11T10:56:34.831Z,100455.72
2023-11-11T10:59:07.279Z,100450.56
2023-11-11T11:01:37.341Z,100445.06
2023-11-11T11:04:07.245Z,100460.56
2023-11-11T11:06:47.060Z,100462.38
2023-11-11T11:09:45.229Z,100457.59
2023-11-11T11:13:00.838Z,100468.09
2023-11-11T11:15:29.920Z,100462.31
2023-11-11T11:17:57.681Z,100463.13
2023-11-11T11:20:27.514Z,100465.59
2023-11-11T11:23:01.873Z,100466.59
2023-11-11T11:25:35.826Z,100479.63
2023-11-11T11:28:13.702Z,100480.53
2023-11-11T11:30:47.485Z,100479.69
2023-11-11T11:33:20.086Z,100471.69
2023-11-11T11:36:05.502Z,100462.84
2023-11-11T11:38:40.137Z,100469.78
2023-11-11T11:41:22.403Z,100470.19
2023-11-11T11:43:55.353Z,100469.34
2023-11-11T11:46:24.017Z,100478.78
2023-11-11T11:48:52.562Z,100473.63
2023-11-11T11:51:21.282Z,100468.09
2023-11-11T11:53:51.251Z,100469.50
2023-11-11T11:56:33.765Z,100473.09
2023-11-11T11:59:04.649Z,100481.34
2023-11-11T12:01:36.524Z,100483.34
2023-11-11T12:04:05.327Z,100476.44
2023-11-11T12:06:40.635Z,100476.31
2023-11-11T12:09:13.643Z,100487.28
2023-11-11T12:11:41.329Z,100477.38
2023-11-11T12:14:10.524Z,100473.81
2023-11-11T12:16:39.245Z,100473.00
2023-11-11T12:19:18.488Z,100480.91
2023-11-11T12:21:48.892Z,100468.94
2023-11-11T12:24:19.790Z,100475.91
2023-11-11T12:26:52.297Z,100471.75
2023-11-11T12:29:20.600Z,100472.47
2023-11-11T12:31:49.488Z,100482.78
2023-11-11T12:34:20.348Z,100474.06
2023-11-11T12:36:48.787Z,100474.09
2023-11-11T12:39:17.040Z,100468.97
2023-11-11T12:41:52.909Z,100475.66
2023-11-11T12:44:22.159Z,100476.47
2023-11-11T12:46:49.942Z,100480.00
2023-11-11T12:49:29.059Z,100482.44
2023-11-11T12:52:00.897Z,100483.56
2023-11-11T12:54:34.617Z,100498.34
2023-11-11T12:57:03.457Z,100500.06
2023-11-11T12:59:31.764Z,100504.50
2023-11-11T13:02:06.678Z,100498.41
2023-11-11T13:04:35.210Z,100493.25
2023-11-11T13:07:18.609Z,100508.84
2023-11-11T13:09:47.009Z,100508.72
2023-11-11T13:12:16.127Z,100503.63
2023-11-11T13:14:47.242Z,100506.97
2023-11-11T13:17:15.245Z,100498.53
2023-11-11T13:19:44.374Z,100510.41
2023-11-11T13:22:13.676Z,100510.34
2023-11-11T13:24:41.712Z,100499.25
2023-11-11T13:27:09.505Z,100495.88
2023-11-11T13:29:37.433Z,100499.41
2023-11-11T13:32:05.871Z,100495.81
2023-11-11T13:34:35.040Z,100497.53
2023-11-11T13:37:12.538Z,100500.13
2023-11-11T13:39:52.794Z,100509.50
2023-11-11T13:42:22.954Z,100503.44
2023-11-11T13:44:51.671Z,100506.22
2023-11-11T13:47:21.505Z,100517.34
2023-11-11T13:49:49.321Z,100505.22
2023-11-11T13:52:17.133Z,100515.53
2023-11-11T13:54:45.571Z,100521.59
2023-11-11T13:57:15.046Z,100513.06
2023-11-11T13:59:42.756Z,100530.25
2023-11-11T14:02:12.985Z,100526.94
2023-11-11T14:04:45.808Z,100527.81
2023-11-11T14:07:14.865Z,100528.66
2023-11-11T14:09:42.707Z,100527.72
2023-11-11T14:12:12.027Z,100524.38
2023-11-11T14:14:40.883Z,100533.81
2023-11-11T14:17:08.818Z,100532.94
2023-11-11T14:19:36.605Z,100544.91
2023-11-11T14:22:04.589Z,100546.56
2023-11-11T14:24:51.932Z,100541.56
2023-11-11T14:27:19.656Z,100538.06
2023-11-11T14:29:48.728Z,100542.41
2023-11-11T14:32:17.687Z,100544.16
2023-11-11T14:34:45.641Z,100544.97
2023-11-11T14:37:14.031Z,100553.50
2023-11-11T14:39:46.515Z,100556.03
2023-11-11T14:42:16.700Z,100545.81
2023-11-11T14:44:44.716Z,100556.00
2023-11-11T14:47:12.574Z,100556.09
2023-11-11T14:49:40.461Z,100563.78
2023-11-11T14:52:10.875Z,100564.75
2023-11-11T14:54:40.089Z,100575.88
2023-11-11T14:57:07.869Z,100583.63
2023-11-11T14:59:35.580Z,100599.19
2023-11-11T15:02:05.010Z,100600.84
2023-11-11T15:04:33.009Z,100588.63
2023-11-11T15:07:00.856Z,100594.94
2023-11-11T15:09:28.670Z,100596.84
2023-11-11T15:11:56.449Z,100601.16
2023-11-11T15:14:24.194Z,100597.78
2023-11-11T15:16:52.053Z,100601.19
2023-11-11T15:19:20.025Z,100609.59
2023-11-11T15:21:50.582Z,100612.38
2023-11-11T15:24:19.148Z,100611.16
2023-11-11T15:26:47.852Z,100613.84
2023-11-11T15:29:15.744Z,100618.00
2023-11-11T15:31:43.999Z,100616.16
2023-11-11T15:34:13.398Z,100624.66
2023-11-11T15:36:41.681Z,100627.94
2023-11-11T15:39:23.576Z,100621.91
2023-11-11T15:41:54.669Z,100626.59
2023-11-11T15:44:22.515Z,100626.88
2023-11-11T15:46:51.539Z,100630.75
2023-11-11T15:49:21.382Z,100632.69
2023-11-11T15:51:51.126Z,100635.50
2023-11-11T15:54:19.974Z,100646.13
2023-11-11T15:56:49.766Z,100642.19
2023-11-11T15:59:21.394Z,100646.00
2023-11-11T16:01:49.337Z,100647.59
2023-11-11T16:04:18.397Z,100657.13
2023-11-11T16:06:46.257Z,100661.84
2023-11-11T16:09:17.709Z,100656.13
2023-11-11T16:11:46.076Z,100668.56
2023-11-11T16:14:13.674Z,100667.41
2023-11-11T16:16:41.997Z,100664.88
2023-11-11T16:19:09.873Z,100666.53
2023-11-11T16:21:37.785Z,100669.97
2023-11-11T16:24:20.258Z,100661.38
2023-11-11T16:26:54.515Z,100662.59
2023-11-11T16:29:22.302Z,100662.06
2023-11-11T16:31:50.109Z,100660.44
2023-11-11T16:34:22.341Z,100662.72
2023-11-11T16:36:50.117Z,100660.63
2023-11-11T16:39:20.436Z,100657.88
2023-11-11T16:41:52.455Z,100660.66
2023-11-11T16:44:22.425Z,100654.59
2023-11-11T16:46:50.161Z,100663.06
2023-11-11T16:49:18.051Z,100668.25
2023-11-11T16:51:46.971Z,100674.50
2023-11-11T16:54:15.632Z,100675.84
2023-11-11T16:56:43.817Z,100677.59
2023-11-11T16:59:14.034Z,100672.69
2023-11-11T17:01:41.972Z,100672.13
2023-11-11T17:04:10.667Z,100673.16
2023-11-11T17:06:38.460Z,100683.88
2023-11-11T17:09:12.186Z,100676.00
2023-11-11T17:11:46.917Z,100679.13
2023-11-11T17:14:15.939Z,100680.34
2023-11-11T17:16:45.288Z,100683.38
2023-11-11T17:19:13.440Z,100678.13
2023-11-11T17:21:41.174Z,100675.94
2023-11-11T17:24:12.031Z,100682.72
2023-11-11T17:26:40.201Z,100685.63
2023-11-11T17:29:10.940Z,100684.00
2023-11-11T17:31:38.826Z,100690.78
2023-11-11T17:34:08.158Z,100673.38
2023-11-11T17:36:37.394Z,100682.88
2023-11-11T17:39:05.101Z,100690.34
2023-11-11T17:41:35.662Z,100690.25
2023-11-11T17:44:03.703Z,100690.13
2023-11-11T17:46:31.665Z,100677.47
2023-11-11T17:49:00.575Z,100680.09
2023-11-11T17:51:28.371Z,100679.34
2023-11-11T17:53:56.758Z,100681.81
2023-11-11T17:56:28.370Z,100678.19
2023-11-11T17:58:56.319Z,100690.41
2023-11-11T18:01:24.199Z,100672.94
2023-11-11T18:03:52.116Z,100677.28
2023-11-11T18:06:19.874Z,100677.25
2023-11-11T18:08:47.661Z,100675.19
2023-11-11T18:11:15.606Z,100686.00
2023-11-11T18:13:43.618Z,100682.66
2023-11-11T18:16:18.760Z,100684.53
2023-11-11T18:18:47.137Z,100683.47
2023-11-11T18:21:15.276Z,100689.66
2023-11-11T18:23:45.165Z,100686.28
2023-11-11T18:26:13.787Z,100688.41
2023-11-11T18:28:41.913Z,100679.81
2023-11-11T18:31:09.992Z,100681.88
2023-11-11T18:33:38.240Z,100683.63
2023-11-11T18:36:09.492Z,100692.31
2023-11-11T18:38:38.449Z,100700.53
2023-11-11T18:41:08.182Z,100703.13
2023-11-11T18:43:36.932Z,100702.91
2023-11-11T18:46:05.004Z,100709.47
2023-11-11T18:48:32.783Z,100700.88
2023-11-11T18:51:00.574Z,100698.06
2023-11-11T18:53:29.951Z,100708.69
2023-11-11T18:55:58.534Z,100705.66
2023-11-11T18:58:26.527Z,100705.66
2023-11-11T19:00:56.428Z,100708.09
2023-11-11T19:03:24.455Z,100712.13
2023-11-11T19:05:53.866Z,100712.84
2023-11-11T19:08:22.087Z,100724.09
2023-11-11T19:10:49.723Z,100717.44
2023-11-11T19:13:17.569Z,100721.91
2023-11-11T19:15:45.454Z,100717.41
2023-11-11T19:18:13.342Z,100716.78
2023-11-11T19:20:42.065Z,100708.81
2023-11-11T19:23:10.110Z,100719.63
2023-11-11T19:25:37.978Z,100704.16
2023-11-11T19:28:05.902Z,100712.13
2023-11-11T19:30:33.654Z,100712.63
2023-11-11T19:33:01.407Z,100721.22
2023-11-11T19:35:29.375Z,100718.88
2023-11-11T19:37:58.581Z,100706.63
2023-11-11T19:40:27.062Z,100715.38
2023-11-11T19:42:54.830Z,100709.38
2023-11-11T19:45:24.447Z,100706.91
2023-11-11T19:47:52.925Z,100716.81
2023-11-11T19:50:20.677Z,100721.88
2023-11-11T19:52:48.796Z,100715.75
2023-11-11T19:55:16.511Z,100720.03
2023-11-11T19:57:44.768Z,100722.84
2023-11-11T20:00:12.901Z,100718.81
2023-11-11T20:02:41.835Z,100719.88
2023-11-11T20:05:10.130Z,100720.22
2023-11-11T20:07:37.920Z,100725.31
2023-11-11T20:10:06.903Z,100724.19
2023-11-11T20:12:36.265Z,100711.97
2023-11-11T20:15:04.398Z,100709.84
2023-11-11T20:17:32.240Z,100715.09
2023-11-11T20:19:59.964Z,100721.53
2023-11-11T20:22:27.844Z,100713.69
2023-11-11T20:24:55.529Z,100714.31
2023-11-11T20:27:23.441Z,100712.75
2023-11-11T20:29:52.611Z,100713.44
2023-11-11T20:32:20.503Z,100711.19
2023-11-11T20:34:48.409Z,100696.59
2023-11-11T20:37:17.564Z,100707.66
2023-11-11T20:39:45.418Z,100703.50
2023-11-11T20:42:13.452Z,100697.75
2023-11-11T20:44:41.295Z,100697.75
2023-11-11T20:47:09.566Z,100693.19
2023-11-11T20:49:38.125Z,100700.13
2023-11-11T20:52:06.303Z,100698.34
2023-11-11T20:54:34.874Z,100695.59
2023-11-11T20:57:02.753Z,100698.22
2023-11-11T20:59:32.115Z,100704.59
2023-11-11T21:01:59.983Z,100691.56
2023-11-11T21:04:30.078Z,100698.75
2023-11-11T21:06:58.146Z,100689.06
2023-11-11T21:09:25.847Z,100694.53
2023-11-11T21:11:54.038Z,100690.16
2023-11-11T21:14:23.176Z,100691.75
2023-11-11T21:16:50.923Z,100687.59
2023-11-11T21:19:19.332Z,100693.56
2023-11-11T21:21:48.108Z,100690.84
2023-11-11T21:24:19.136Z,100689.72
2023-11-11T21:26:49.248Z,100685.81
2023-11-11T21:29:17.596Z,100686.91
2023-11-11T21:31:45.491Z,100684.66
2023-11-11T21:34:13.387Z,100689.31
2023-11-11T21:36:41.452Z,100684.66
2023-11-11T21:39:10.806Z,100689.34
2023-11-11T21:41:38.541Z,100683.94
2023-11-11T21:44:09.836Z,100687.28
2023-11-11T21:46:38.384Z,100687.00
2023-11-11T21:49:07.122Z,100693.53
2023-11-11T21:51:35.454Z,100691.50
2023-11-11T21:54:03.268Z,100680.06
2023-11-11T21:56:31.221Z,100683.09
2023-11-11T21:59:00.176Z,100685.69
2023-11-11T22:01:28.363Z,100680.84
2023-11-11T22:03:56.219Z,100674.75
2023-11-11T22:06:23.950Z,100674.53
2023-11-11T22:08:51.706Z,100670.53
2023-11-11T22:11:19.405Z,100674.69
2023-11-11T22:13:47.772Z,100667.75
2023-11-11T22:16:15.587Z,100676.38
2023-11-11T22:18:43.366Z,100660.78
2023-11-11T22:21:11.102Z,100665.72
2023-11-11T22:23:39.242Z,100666.47
2023-11-11T22:26:07.304Z,100671.03
2023-11-11T22:28:35.649Z,100662.44
2023-11-11T22:31:03.427Z,100663.50
2023-11-11T22:33:31.202Z,100657.25
2023-11-11T22:35:58.980Z,100658.63
2023-11-11T22:38:26.686Z,100662.34
2023-11-11T22:40:54.780Z,100669.13
2023-11-11T22:43:22.517Z,100668.38
2023-11-11T22:45:50.315Z,100670.66
2023-11-11T22:48:18.048Z,100672.28
2023-11-11T22:50:45.879Z,100666.06
2023-11-11T22:53:13.709Z,100665.78
2023-11-11T22:55:41.875Z,100678.28
2023-11-11T22:58:09.971Z,100680.91
2023-11-11T23:00:37.742Z,100681.75
2023-11-11T23:03:13.187Z,100691.38
2023-11-11T23:05:43.243Z,100671.41
2023-11-11T23:08:11.867Z,100679.28
2023-11-11T23:10:41.031Z,100681.72
2023-11-11T23:13:11.644Z,100692.25
2023-11-11T23:15:40.996Z,100689.28
2023-11-11T23:18:11.660Z,100684.94
2023-11-11T23:20:42.720Z,100684.56
2023-11-11T23:23:11.685Z,100687.59
2023-11-11T23:25:42.913Z,100682.88
2023-11-11T23:28:11.712Z,100678.97
2023-11-11T23:30:41.678Z,100677.16
2023-11-11T23:33:12.242Z,100676.47
2023-11-11T23:35:40.688Z,100669.13
2023-11-11T23:38:08.815Z,100667.44
2023-11-11T23:40:36.586Z,100668.31
2023-11-11T23:43:04.497Z,100663.34
2023-11-11T23:45:33.401Z,100661.28
2023-11-11T23:48:02.516Z,100665.28
2023-11-11T23:50:30.804Z,100667.63
2023-11-11T23:52:58.668Z,100670.63
2023-11-11T23:55:26.398Z,100662.03
2023-11-11T23:57:54.148Z,100667.13
